Time;durP1;ratioP1;P1;durP2;ratioP2;P2;SDS_P1;SDS_P2;PMS_P1;PMS_P2;Temp;Humidity;BMP_temperature;BMP_pressure;BME280_temperature;BME280_humidity;BME280_pressure;Samples;Min_cycle;Max_cycle;Signal;HPM_P1;HPM_P2
2024/03/15 00:02:13;;;;;;;5.43;2.60;;;6.30;99.90;;;;;;5093658;28;20499;-77
2024/03/15 00:04:39;;;;;;;2.87;1.80;;;6.20;99.90;;;;;;5093405;28;20035;-76
2024/03/15 00:07:05;;;;;;;3.17;1.80;;;6.20;99.90;;;;;;5093680;28;20530;-77
2024/03/15 00:09:31;;;;;;;4.70;1.83;;;6.20;99.90;;;;;;5093479;28;20036;-76
2024/03/15 00:11:56;;;;;;;3.97;1.87;;;6.10;99.90;;;;;;5093920;28;20169;-77
2024/03/15 00:14:22;;;;;;;4.77;1.93;;;6.10;99.90;;;;;;5093280;28;20028;-78
2024/03/15 00:16:50;;;;;;;3.67;1.80;;;6.10;99.90;;;;;;5093393;28;20426;-77
2024/03/15 00:19:16;;;;;;;3.33;2.10;;;6.00;99.90;;;;;;5093628;28;20069;-77
2024/03/15 00:21:42;;;;;;;2.93;2.00;;;6.00;99.90;;;;;;5093179;28;20160;-77
2024/03/15 00:24:07;;;;;;;4.53;1.90;;;6.00;99.90;;;;;;5093405;28;20013;-77
2024/03/15 00:26:35;;;;;;;2.97;2.00;;;5.90;99.90;;;;;;5111061;28;20095;-77
2024/03/15 00:29:02;;;;;;;2.87;1.80;;;5.90;99.90;;;;;;5113468;28;20039;-77
2024/03/15 00:31:27;;;;;;;5.10;2.23;;;5.90;99.90;;;;;;5113793;28;20024;-77
2024/03/15 00:33:53;;;;;;;4.23;2.00;;;5.80;99.90;;;;;;5113499;28;20028;-77
2024/03/15 00:36:18;;;;;;;4.23;2.40;;;5.80;99.90;;;;;;5113155;28;20024;-77
2024/03/15 00:38:44;;;;;;;7.23;2.47;;;5.80;99.90;;;;;;5113486;28;20020;-77
2024/03/15 00:41:09;;;;;;;6.30;2.10;;;5.70;99.90;;;;;;5107281;28;20027;-77
2024/03/15 00:43:38;;;;;;;8.07;2.20;;;5.70;99.90;;;;;;5096369;28;20104;-77
2024/03/15 00:46:03;;;;;;;4.47;2.20;;;5.70;99.90;;;;;;5092373;28;20494;-77
2024/03/15 00:48:29;;;;;;;5.77;2.10;;;5.60;99.90;;;;;;5092548;28;20028;-77
2024/03/15 00:50:54;;;;;;;3.57;2.20;;;5.70;99.90;;;;;;5092797;28;20115;-77
2024/03/15 00:53:20;;;;;;;21.33;2.60;;;5.60;99.90;;;;;;5092780;28;20071;-77
2024/03/15 00:55:45;;;;;;;11.87;2.50;;;5.60;99.90;;;;;;5092607;28;20012;-77
2024/03/15 00:58:11;;;;;;;7.27;2.10;;;5.60;99.90;;;;;;5092292;28;20032;-77
2024/03/15 01:00:37;;;;;;;6.77;2.20;;;5.60;99.90;;;;;;5092995;28;20027;-77
2024/03/15 01:03:02;;;;;;;2.73;1.90;;;5.60;99.90;;;;;;5092625;28;20133;-77
2024/03/15 01:05:28;;;;;;;13.00;2.90;;;5.60;99.90;;;;;;5092482;28;20107;-77
2024/03/15 01:07:53;;;;;;;4.40;2.13;;;5.60;99.90;;;;;;5092456;28;20438;-76
2024/03/15 01:10:20;;;;;;;3.40;1.97;;;5.60;99.90;;;;;;5092822;28;20472;-76
2024/03/15 01:12:46;;;;;;;4.47;1.90;;;5.60;99.90;;;;;;5092251;28;20480;-76
2024/03/15 01:15:12;;;;;;;3.23;2.00;;;5.70;99.90;;;;;;5091751;28;20563;-77
2024/03/15 01:17:37;;;;;;;5.93;3.10;;;5.60;99.90;;;;;;5092012;28;20020;-77
2024/03/15 01:20:05;;;;;;;3.10;2.13;;;5.60;99.90;;;;;;5092242;28;20035;-77
2024/03/15 01:22:34;;;;;;;4.43;2.83;;;5.60;99.90;;;;;;5092174;28;20075;-78
2024/03/15 01:24:59;;;;;;;4.13;2.80;;;5.60;99.90;;;;;;5091923;28;20039;-76
2024/03/15 01:27:25;;;;;;;6.03;2.47;;;5.60;99.90;;;;;;5092446;28;20374;-77
2024/03/15 01:29:53;;;;;;;5.00;2.30;;;5.50;99.90;;;;;;5092137;28;20047;-78
2024/03/15 01:32:19;;;;;;;4.90;2.77;;;5.50;99.90;;;;;;5092118;28;20078;-77
2024/03/15 01:34:44;;;;;;;4.10;2.50;;;5.50;99.90;;;;;;5091634;28;20028;-77
2024/03/15 01:37:11;;;;;;;3.03;2.43;;;5.50;99.90;;;;;;5092786;28;20377;-77
2024/03/15 01:39:37;;;;;;;4.13;2.37;;;5.50;99.90;;;;;;5092931;28;20050;-77
2024/03/15 01:42:03;;;;;;;5.10;2.50;;;5.50;99.90;;;;;;5103436;28;20083;-77
2024/03/15 01:44:51;;;;;;;5.30;2.20;;;5.50;99.90;;;;;;5091327;28;20036;-77
2024/03/15 01:47:20;;;;;;;2.87;2.20;;;5.40;99.90;;;;;;5091837;28;20030;-78
2024/03/15 01:49:47;;;;;;;2.70;2.07;;;5.50;99.90;;;;;;5091870;28;20450;-76
2024/03/15 01:52:13;;;;;;;2.60;1.90;;;5.40;99.90;;;;;;5092093;28;20346;-77
2024/03/15 01:54:42;;;;;;;2.73;2.10;;;5.50;99.90;;;;;;5091251;28;20484;-77
2024/03/15 01:57:08;;;;;;;3.97;2.20;;;5.50;99.90;;;;;;5091934;28;20043;-77
2024/03/15 01:59:34;;;;;;;4.10;2.40;;;5.40;99.90;;;;;;5091540;28;20488;-76
2024/03/15 02:02:02;;;;;;;2.83;2.07;;;5.50;99.90;;;;;;5091750;28;20134;-77
2024/03/15 02:04:27;;;;;;;5.13;2.00;;;5.50;99.90;;;;;;5091528;28;20028;-77
2024/03/15 02:06:55;;;;;;;3.00;2.10;;;5.40;99.90;;;;;;5091740;28;20536;-77
2024/03/15 02:09:21;;;;;;;3.40;2.20;;;5.50;99.90;;;;;;5091862;28;20103;-77
2024/03/15 02:11:47;;;;;;;2.87;2.30;;;5.50;99.90;;;;;;5091868;28;20031;-77
2024/03/15 02:14:13;;;;;;;4.17;2.03;;;5.40;99.90;;;;;;5091343;28;20035;-77
2024/03/15 02:16:39;;;;;;;4.97;2.10;;;5.40;99.90;;;;;;5091065;28;20024;-77
2024/03/15 02:19:04;;;;;;;3.50;2.10;;;5.40;99.90;;;;;;5091915;28;20024;-77
2024/03/15 02:21:30;;;;;;;3.70;2.00;;;5.40;99.90;;;;;;5091851;28;20192;-76
2024/03/15 02:23:55;;;;;;;3.87;2.20;;;5.30;99.90;;;;;;5091599;28;20020;-78
2024/03/15 02:26:21;;;;;;;3.10;2.00;;;5.30;99.90;;;;;;5101467;28;20028;-77
2024/03/15 02:28:47;;;;;;;3.13;1.80;;;5.30;99.90;;;;;;5111956;28;20038;-77
2024/03/15 02:31:13;;;;;;;3.80;1.83;;;5.30;99.90;;;;;;5111917;28;20076;-77
2024/03/15 02:33:39;;;;;;;3.00;1.97;;;5.30;99.90;;;;;;5111892;28;20107;-77
2024/03/15 02:36:08;;;;;;;3.07;1.80;;;5.30;99.90;;;;;;5111500;28;20043;-76
2024/03/15 02:38:33;;;;;;;3.97;2.00;;;5.30;99.90;;;;;;5112023;28;20107;-77
2024/03/15 02:40:59;;;;;;;3.57;2.40;;;5.30;99.90;;;;;;5105567;28;20145;-77
2024/03/15 02:43:25;;;;;;;2.77;1.80;;;5.30;99.90;;;;;;5098427;28;20426;-77
2024/03/15 02:45:50;;;;;;;2.57;1.77;;;5.30;99.90;;;;;;5095029;28;20032;-76
2024/03/15 02:48:16;;;;;;;2.63;1.87;;;5.30;99.90;;;;;;5095161;28;20042;-77
2024/03/15 02:50:42;;;;;;;9.00;2.20;;;5.30;99.90;;;;;;5095559;28;20108;-77
2024/03/15 02:53:08;;;;;;;5.07;2.00;;;5.30;99.90;;;;;;5095691;28;20052;-77
2024/03/15 02:55:34;;;;;;;3.97;1.73;;;5.30;99.90;;;;;;5095536;28;20085;-77
2024/03/15 02:58:00;;;;;;;3.60;1.70;;;5.30;99.90;;;;;;5095680;28;20119;-77
2024/03/15 03:00:26;;;;;;;4.83;2.07;;;5.30;99.90;;;;;;5095360;28;20384;-77
2024/03/15 03:02:53;;;;;;;4.60;1.77;;;5.30;99.90;;;;;;5095295;28;20020;-78
2024/03/15 03:05:19;;;;;;;3.40;2.03;;;5.40;99.90;;;;;;5094538;28;20043;-77
2024/03/15 03:07:44;;;;;;;2.63;1.77;;;5.40;99.90;;;;;;5094763;28;20079;-77
2024/03/15 03:10:10;;;;;;;3.03;1.80;;;5.40;99.90;;;;;;5095016;28;20027;-77
2024/03/15 03:12:36;;;;;;;3.57;1.73;;;5.40;99.90;;;;;;5094594;28;20017;-77
2024/03/15 03:15:02;;;;;;;4.97;1.93;;;5.40;99.90;;;;;;5094206;28;20515;-77
2024/03/15 03:17:28;;;;;;;7.47;1.97;;;5.40;99.90;;;;;;5094767;28;20058;-77
2024/03/15 03:19:53;;;;;;;3.87;1.70;;;5.40;99.90;;;;;;5094896;28;20040;-77
2024/03/15 03:22:19;;;;;;;5.37;1.50;;;5.40;99.90;;;;;;5094550;28;20210;-77
2024/03/15 03:24:46;;;;;;;5.03;1.70;;;5.40;99.90;;;;;;5093817;28;20039;-77
2024/03/15 03:27:11;;;;;;;3.87;1.90;;;5.40;99.90;;;;;;5094228;28;20147;-77
2024/03/15 03:29:37;;;;;;;2.93;1.87;;;5.40;99.90;;;;;;5094312;28;20451;-77
2024/03/15 03:32:02;;;;;;;2.13;1.50;;;5.40;99.90;;;;;;5094326;28;20016;-77
2024/03/15 03:34:28;;;;;;;2.90;1.43;;;5.40;99.90;;;;;;5093863;28;20106;-77
2024/03/15 03:36:54;;;;;;;3.00;2.20;;;5.50;99.90;;;;;;5094499;28;20392;-76
2024/03/15 03:39:20;;;;;;;5.10;1.73;;;5.50;99.90;;;;;;5094134;28;20028;-78
2024/03/15 03:41:47;;;;;;;2.87;2.20;;;5.50;99.90;;;;;;5105538;28;20023;-77
2024/03/15 03:44:16;;;;;;;6.40;2.03;;;5.50;99.90;;;;;;5093976;28;20028;-77
2024/03/15 03:46:42;;;;;;;5.50;2.27;;;5.50;99.90;;;;;;5094032;28;20122;-77
2024/03/15 03:49:08;;;;;;;3.43;1.90;;;5.60;99.90;;;;;;5093825;28;20372;-77
2024/03/15 03:51:34;;;;;;;3.67;2.03;;;5.60;99.90;;;;;;5094106;28;20115;-77
2024/03/15 03:54:00;;;;;;;3.50;1.80;;;5.60;99.90;;;;;;5093397;28;20020;-76
2024/03/15 03:56:29;;;;;;;2.20;1.50;;;5.70;99.90;;;;;;5113349;28;20096;-77
2024/03/15 03:58:54;;;;;;;5.23;1.90;;;5.70;99.90;;;;;;5113935;28;20043;-77
2024/03/15 04:01:20;;;;;;;2.50;1.70;;;5.70;99.90;;;;;;5113814;28;20027;-76
2024/03/15 04:03:48;;;;;;;7.47;1.70;;;5.80;99.90;;;;;;5113962;28;20020;-77
2024/03/15 04:06:14;;;;;;;3.70;1.73;;;5.80;99.90;;;;;;5113770;28;20024;-77
2024/03/15 04:08:40;;;;;;;3.57;1.80;;;5.80;99.90;;;;;;5114039;28;20034;-77
2024/03/15 04:11:05;;;;;;;4.47;2.00;;;5.80;99.90;;;;;;5114078;28;20103;-77
2024/03/15 04:13:31;;;;;;;4.47;2.00;;;5.80;99.90;;;;;;5114144;28;20107;-77
2024/03/15 04:15:56;;;;;;;2.87;1.70;;;5.90;99.90;;;;;;5113645;28;20040;-77
2024/03/15 04:18:22;;;;;;;6.50;2.17;;;5.90;99.90;;;;;;5114143;28;20028;-77
2024/03/15 04:20:48;;;;;;;4.73;2.27;;;5.80;99.90;;;;;;5114267;28;20020;-76
2024/03/15 04:23:20;;;;;;;5.17;2.03;;;5.80;99.90;;;;;;5113862;28;20497;-77
2024/03/15 04:25:47;;;;;;;4.00;2.10;;;5.80;99.90;;;;;;5113347;28;20031;-77
2024/03/15 04:28:14;;;;;;;4.87;1.97;;;5.80;99.90;;;;;;5113646;28;20084;-77
2024/03/15 04:30:40;;;;;;;11.90;2.87;;;5.80;99.90;;;;;;5114120;28;20024;-77
2024/03/15 04:33:06;;;;;;;3.63;2.13;;;5.80;99.90;;;;;;5113851;28;20030;-76
2024/03/15 04:35:31;;;;;;;3.13;2.00;;;5.80;99.90;;;;;;5113395;28;20034;-78
2024/03/15 04:37:57;;;;;;;6.10;2.07;;;5.80;99.90;;;;;;5113741;28;20023;-77
2024/03/15 04:40:25;;;;;;;7.57;2.07;;;5.80;99.90;;;;;;5108426;28;20427;-77
2024/03/15 04:42:51;;;;;;;3.00;1.80;;;5.80;99.90;;;;;;5101892;28;20024;-77
2024/03/15 04:45:17;;;;;;;4.73;1.90;;;5.80;99.90;;;;;;5092601;28;20077;-77
2024/03/15 04:47:44;;;;;;;3.63;2.10;;;5.80;99.90;;;;;;5093015;28;20121;-77
2024/03/15 04:50:09;;;;;;;3.57;2.07;;;5.90;99.90;;;;;;5093227;28;20099;-77
2024/03/15 04:52:41;;;;;;;2.93;1.90;;;5.90;99.90;;;;;;5092812;28;20492;-77
2024/03/15 04:55:10;;;;;;;3.73;1.77;;;5.90;99.90;;;;;;5100265;28;20156;-77
2024/03/15 04:57:38;;;;;;;4.10;1.90;;;5.90;99.90;;;;;;5113358;28;20039;-77
2024/03/15 05:00:09;;;;;;;3.03;1.90;;;5.90;99.90;;;;;;5113381;28;20028;-77
2024/03/15 05:02:35;;;;;;;4.73;1.80;;;6.00;99.90;;;;;;5113036;28;20160;-78
2024/03/15 05:05:01;;;;;;;4.90;2.60;;;6.00;99.90;;;;;;5111889;28;20103;-77
2024/03/15 05:07:26;;;;;;;6.80;2.30;;;6.00;99.90;;;;;;5112611;28;20027;-76
2024/03/15 05:09:52;;;;;;;5.37;1.77;;;5.90;99.90;;;;;;5113700;28;20149;-78
2024/03/15 05:12:17;;;;;;;7.60;1.93;;;6.00;99.90;;;;;;5113149;28;20022;-77
2024/03/15 05:14:43;;;;;;;2.70;1.90;;;5.90;99.90;;;;;;5112729;28;20028;-76
2024/03/15 05:17:08;;;;;;;3.60;2.00;;;5.90;99.90;;;;;;5111117;27;20028;-77
2024/03/15 05:19:34;;;;;;;3.37;2.20;;;5.90;99.90;;;;;;5112896;27;20020;-77
2024/03/15 05:22:00;;;;;;;5.40;2.57;;;5.90;99.90;;;;;;5112182;28;20095;-77
2024/03/15 05:24:26;;;;;;;8.03;2.83;;;5.90;99.90;;;;;;5112133;28;20023;-78
2024/03/15 05:26:51;;;;;;;14.07;2.67;;;5.90;99.90;;;;;;5114201;28;20015;-76
2024/03/15 05:29:17;;;;;;;7.77;2.50;;;5.90;99.90;;;;;;5111739;28;20491;-77
2024/03/15 05:31:43;;;;;;;6.97;2.10;;;5.90;99.90;;;;;;5113820;27;20035;-77
2024/03/15 05:34:09;;;;;;;8.43;2.30;;;5.90;99.90;;;;;;5110843;28;20498;-77
2024/03/15 05:36:35;;;;;;;9.67;2.57;;;5.80;99.90;;;;;;5112010;27;20541;-77
2024/03/15 05:39:01;;;;;;;9.93;2.70;;;5.80;99.90;;;;;;5110193;28;20019;-76
2024/03/15 05:41:26;;;;;;;10.67;2.80;;;5.80;99.90;;;;;;5110825;28;20511;-76
2024/03/15 05:43:52;;;;;;;10.80;2.40;;;5.80;99.90;;;;;;5112290;28;20070;-77
2024/03/15 05:46:17;;;;;;;9.80;2.47;;;5.80;99.90;;;;;;5111138;28;20025;-77
2024/03/15 05:48:43;;;;;;;11.57;2.60;;;5.80;99.90;;;;;;5111024;28;20028;-77
2024/03/15 05:51:08;;;;;;;8.23;2.50;;;5.80;99.90;;;;;;5112283;27;20024;-77
2024/03/15 05:53:34;;;;;;;9.57;2.63;;;5.80;99.90;;;;;;5113974;27;20020;-79
2024/03/15 05:55:59;;;;;;;14.33;3.13;;;5.80;99.90;;;;;;5116673;27;20020;-79
2024/03/15 05:58:25;;;;;;;18.10;3.13;;;5.90;99.90;;;;;;5117587;27;20032;-78
2024/03/15 06:00:50;;;;;;;18.87;3.13;;;5.90;99.90;;;;;;5113576;28;20027;-79
2024/03/15 06:03:16;;;;;;;30.30;4.60;;;5.90;99.90;;;;;;5114013;28;20080;-79
2024/03/15 06:05:42;;;;;;;14.53;3.33;;;5.90;99.90;;;;;;5111547;28;20387;-78
2024/03/15 06:08:10;;;;;;;16.17;3.10;;;6.00;99.90;;;;;;5111904;28;20023;-78
2024/03/15 06:10:36;;;;;;;22.13;3.20;;;6.00;99.90;;;;;;5113992;28;20020;-79
2024/03/15 06:13:02;;;;;;;7.17;2.90;;;6.00;99.90;;;;;;5113806;28;20490;-79
2024/03/15 06:15:27;;;;;;;12.27;2.73;;;6.00;99.90;;;;;;5113478;28;20072;-78
2024/03/15 06:17:53;;;;;;;12.10;2.53;;;6.10;99.90;;;;;;5117922;27;20113;-78
2024/03/15 06:20:19;;;;;;;3.80;2.60;;;6.20;99.90;;;;;;5119060;28;20379;-79
2024/03/15 06:22:45;;;;;;;5.73;2.63;;;6.20;99.90;;;;;;5119284;28;20471;-79
2024/03/15 06:25:11;;;;;;;23.00;3.73;;;6.20;99.90;;;;;;5118854;28;20238;-79
2024/03/15 06:27:39;;;;;;;44.57;4.73;;;6.30;99.90;;;;;;5119430;28;20027;-79
2024/03/15 06:30:07;;;;;;;12.30;2.93;;;6.40;99.90;;;;;;5100910;28;20026;-79
2024/03/15 06:32:36;;;;;;;19.17;3.00;;;6.40;99.90;;;;;;5119255;28;20019;-74
2024/03/15 06:35:18;;;;;;;6.97;2.20;;;6.60;99.90;;;;;;5112838;28;20494;-74
2024/03/15 06:37:44;;;;;;;20.40;3.33;;;6.60;99.90;;;;;;5117530;28;20034;-78
2024/03/15 06:40:18;;;;;;;13.50;2.93;;;6.70;99.90;;;;;;5116104;28;20034;-79
2024/03/15 06:45:44;;;;;;;32.43;4.30;;;7.00;99.90;;;;;;5117448;28;20019;-79
2024/03/15 06:48:17;;;;;;;7.53;3.10;;;7.10;99.90;;;;;;5125621;27;20406;-78
2024/03/15 06:52:31;;;;;;;12.33;2.87;;;7.20;99.90;;;;;;5133388;27;20030;-79
2024/03/15 06:53:44;;;;;;;10.60;2.63;;;7.40;99.90;;;;;;5134565;27;20066;-79
2024/03/15 06:56:11;;;;;;;13.13;2.63;;;7.50;99.90;;;;;;5133165;27;20024;-78
2024/03/15 06:58:36;;;;;;;14.23;2.67;;;7.70;99.90;;;;;;5116407;27;20055;-73
2024/03/15 07:01:02;;;;;;;7.37;2.50;;;7.80;99.90;;;;;;5113905;28;20494;-74
2024/03/15 07:03:28;;;;;;;9.27;2.57;;;8.00;99.90;;;;;;5114790;28;20519;-73
2024/03/15 07:05:56;;;;;;;6.50;2.20;;;8.10;99.90;;;;;;5113784;28;20023;-73
2024/03/15 07:08:23;;;;;;;10.77;2.53;;;8.30;99.90;;;;;;5114755;28;20047;-73
2024/03/15 07:10:49;;;;;;;7.23;2.10;;;8.50;99.90;;;;;;5114925;28;20039;-73
2024/03/15 07:13:14;;;;;;;3.50;2.07;;;8.70;99.90;;;;;;5113588;28;20012;-73
2024/03/15 07:15:40;;;;;;;8.00;2.20;;;8.90;99.90;;;;;;5114199;28;20601;-82
2024/03/15 07:18:08;;;;;;;7.00;1.93;;;9.20;99.90;;;;;;5117614;28;20038;-78
2024/03/15 07:20:36;;;;;;;6.37;1.77;;;9.50;99.90;;;;;;5117507;28;20023;-79
2024/03/15 07:23:05;;;;;;;5.00;1.93;;;9.70;99.90;;;;;;5117681;28;20054;-78
2024/03/15 07:25:31;;;;;;;5.33;1.93;;;9.90;99.90;;;;;;5117386;28;20102;-78
2024/03/15 07:27:59;;;;;;;3.37;1.90;;;10.10;99.90;;;;;;5117136;28;20512;-78
2024/03/15 07:30:25;;;;;;;6.07;1.67;;;10.30;99.90;;;;;;5117305;28;20020;-79
2024/03/15 07:32:51;;;;;;;2.43;1.50;;;10.40;99.90;;;;;;5117613;28;20073;-79
2024/03/15 07:35:17;;;;;;;4.03;1.70;;;10.50;99.90;;;;;;5113946;28;20024;-79
2024/03/15 07:37:45;;;;;;;3.77;1.50;;;10.60;99.90;;;;;;5121360;27;20794;-80
2024/03/15 07:40:10;;;;;;;5.77;1.70;;;10.80;99.90;;;;;;5124476;27;20119;-80
2024/03/15 07:42:36;;;;;;;3.50;1.60;;;10.90;99.90;;;;;;5128936;27;20039;-79
2024/03/15 07:45:04;;;;;;;2.43;1.40;;;10.90;99.90;;;;;;5129311;27;20075;-78
2024/03/15 07:47:29;;;;;;;3.57;1.53;;;11.10;99.90;;;;;;5131115;27;20108;-78
2024/03/15 07:49:55;;;;;;;3.87;1.47;;;11.10;99.90;;;;;;5130108;27;20476;-79
2024/03/15 07:52:21;;;;;;;5.77;1.67;;;11.30;99.90;;;;;;5130284;27;20027;-78
2024/03/15 07:54:47;;;;;;;3.47;1.57;;;11.40;99.90;;;;;;5124353;27;20396;-77
2024/03/15 07:57:13;;;;;;;7.43;1.80;;;11.60;99.90;;;;;;5121504;27;20024;-77
2024/03/15 07:59:39;;;;;;;3.80;1.57;;;11.70;99.90;;;;;;5133662;27;20113;-78
2024/03/15 08:02:05;;;;;;;4.00;1.63;;;11.70;99.90;;;;;;5127019;27;20072;-78
2024/03/15 08:04:30;;;;;;;5.20;1.67;;;11.80;99.90;;;;;;5131935;27;20043;-78
2024/03/15 08:06:56;;;;;;;9.05;2.00;;;11.90;99.90;;;;;;5130921;27;20506;-79
2024/03/15 08:09:23;;;;;;;5.45;1.67;;;12.00;99.90;;;;;;5132536;27;20091;-78
2024/03/15 08:11:49;;;;;;;5.47;2.22;;;12.10;99.90;;;;;;5127698;27;20030;-77
2024/03/15 08:14:15;;;;;;;2.90;1.47;;;12.20;99.90;;;;;;5131161;27;20099;-78
2024/03/15 08:16:41;;;;;;;5.60;1.70;;;12.30;99.90;;;;;;5132797;27;20023;-78
2024/03/15 08:19:08;;;;;;;4.22;1.80;;;12.40;99.90;;;;;;5131520;27;20027;-78
2024/03/15 08:21:38;;;;;;;6.63;1.70;;;12.50;99.90;;;;;;5129756;27;20032;-78
2024/03/15 08:24:04;;;;;;;4.25;1.33;;;12.60;99.90;;;;;;5131502;27;20030;-78
2024/03/15 08:26:34;;;;;;;17.83;2.08;;;12.70;99.90;;;;;;5132653;27;20027;-78
2024/03/15 08:29:00;;;;;;;2.60;1.55;;;12.80;99.90;;;;;;5131753;27;20027;-78
2024/03/15 08:31:26;;;;;;;3.78;1.50;;;12.90;99.90;;;;;;5125679;27;20020;-78
2024/03/15 08:33:52;;;;;;;4.72;1.60;;;13.00;99.90;;;;;;5132212;27;20110;-78
2024/03/15 08:36:17;;;;;;;2.95;1.60;;;13.20;99.90;;;;;;5131542;27;20096;-78
2024/03/15 08:38:43;;;;;;;4.80;1.70;;;13.30;99.90;;;;;;5133098;27;20023;-79
2024/03/15 08:41:10;;;;;;;4.72;1.90;;;13.50;99.90;;;;;;5124212;27;20035;-79
2024/03/15 08:43:36;;;;;;;5.57;1.70;;;13.60;99.90;;;;;;5127831;27;20029;-78
2024/03/15 08:46:02;;;;;;;3.45;1.63;;;13.70;99.90;;;;;;5131088;27;20027;-78
2024/03/15 08:48:30;;;;;;;4.43;1.88;;;13.80;99.90;;;;;;5133030;27;20031;-79
2024/03/15 08:50:56;;;;;;;2.13;1.38;;;14.00;99.90;;;;;;5132483;27;20024;-78
2024/03/15 08:53:24;;;;;;;5.07;2.13;;;14.10;99.90;;;;;;5129891;27;20118;-85
2024/03/15 08:55:50;;;;;;;3.55;1.77;;;14.20;99.90;;;;;;5132785;27;20026;-79
2024/03/15 08:58:16;;;;;;;3.53;1.70;;;14.30;99.90;;;;;;5130866;27;20032;-78
2024/03/15 09:00:42;;;;;;;3.65;1.67;;;14.30;99.90;;;;;;5132126;27;20053;-79
2024/03/15 09:03:09;;;;;;;4.57;2.20;;;14.40;99.90;;;;;;5127211;27;20615;-79
2024/03/15 09:05:38;;;;;;;2.90;1.70;;;14.40;99.90;;;;;;5132188;27;20479;-79
2024/03/15 09:08:11;;;;;;;5.00;1.52;;;14.40;99.90;;;;;;5131088;27;20519;-79
2024/03/15 09:10:36;;;;;;;4.22;2.10;;;14.50;99.90;;;;;;5121921;27;20047;-79
2024/03/15 09:13:02;;;;;;;3.15;1.85;;;14.50;99.90;;;;;;5117236;27;20065;-79
2024/03/15 09:15:28;;;;;;;2.72;2.00;;;14.40;99.90;;;;;;5117767;27;20075;-79
2024/03/15 09:17:58;;;;;;;3.78;1.92;;;14.40;99.90;;;;;;5119033;27;20032;-79
2024/03/15 09:20:33;;;;;;;5.05;2.20;;;14.30;99.90;;;;;;5122939;27;20041;-79
2024/03/15 09:23:02;;;;;;;3.22;2.08;;;14.20;99.90;;;;;;5131699;27;20029;-78
2024/03/15 09:25:30;;;;;;;6.40;2.15;;;14.10;99.90;;;;;;5129806;27;20030;-79
2024/03/15 09:27:57;;;;;;;4.20;2.00;;;13.90;99.90;;;;;;5131694;27;20050;-79
2024/03/15 09:30:34;;;;;;;6.50;2.22;;;13.70;99.90;;;;;;5124852;27;20027;-79
2024/03/15 09:33:00;;;;;;;4.35;1.90;;;13.50;99.90;;;;;;5127394;27;20026;-78
2024/03/15 09:35:25;;;;;;;7.03;2.40;;;13.20;99.90;;;;;;5130679;27;20015;-79
2024/03/15 09:37:51;;;;;;;6.38;2.30;;;13.00;99.90;;;;;;5130929;27;20030;-78
2024/03/15 09:40:23;;;;;;;5.25;2.42;;;12.90;99.90;;;;;;5123316;27;20031;-79
2024/03/15 09:42:52;;;;;;;5.85;2.58;;;12.50;99.90;;;;;;5123923;27;20712;-78
2024/03/15 09:45:18;;;;;;;7.20;2.63;;;12.30;99.90;;;;;;5127431;27;20437;-78
2024/03/15 09:47:51;;;;;;;4.80;2.55;;;12.10;99.90;;;;;;5127245;27;20479;-77
2024/03/15 09:50:21;;;;;;;5.50;3.25;;;11.90;99.90;;;;;;5102673;28;20043;-77
2024/03/15 09:52:49;;;;;;;6.72;2.65;;;11.90;99.90;;;;;;5124980;27;20055;-78
2024/03/15 09:55:19;;;;;;;3.85;2.42;;;11.80;99.90;;;;;;5127749;27;20094;-78
2024/03/15 09:57:46;;;;;;;5.22;2.88;;;11.80;99.90;;;;;;5124895;27;20091;-78
2024/03/15 10:00:16;;;;;;;5.55;2.95;;;11.80;99.90;;;;;;5129339;27;20023;-79
2024/03/15 10:02:44;;;;;;;5.18;2.92;;;11.80;99.90;;;;;;5127798;28;20023;-78
2024/03/15 10:05:11;;;;;;;5.40;2.50;;;11.90;99.90;;;;;;5129294;27;20046;-79
2024/03/15 10:07:37;;;;;;;5.30;2.85;;;12.00;99.90;;;;;;5128438;28;20023;-77
2024/03/15 10:10:05;;;;;;;6.93;2.88;;;12.10;99.90;;;;;;5130014;27;20027;-78
2024/03/15 10:12:33;;;;;;;4.07;2.53;;;12.20;99.90;;;;;;5121937;28;20479;-78
2024/03/15 10:14:59;;;;;;;3.78;2.42;;;12.40;99.90;;;;;;5125708;27;20042;-78
2024/03/15 10:17:25;;;;;;;6.20;2.40;;;12.40;99.90;;;;;;5129058;27;20119;-78
2024/03/15 10:19:51;;;;;;;8.38;2.50;;;12.50;99.90;;;;;;5130301;27;20041;-79
2024/03/15 10:22:16;;;;;;;4.30;2.20;;;12.60;99.90;;;;;;5119202;28;20378;-77
2024/03/15 10:24:42;;;;;;;6.20;2.70;;;12.70;99.90;;;;;;5114150;28;20024;-78
2024/03/15 10:27:14;;;;;;;6.53;2.70;;;12.80;99.90;;;;;;5113810;28;20379;-79
2024/03/15 10:29:40;;;;;;;5.30;3.33;;;12.90;99.90;;;;;;5111082;28;20479;-78
2024/03/15 10:32:10;;;;;;;4.97;2.47;;;12.90;99.90;;;;;;5114538;28;20058;-79
2024/03/15 10:34:37;;;;;;;5.90;2.67;;;13.00;99.90;;;;;;5113151;28;20102;-80
2024/03/15 10:37:09;;;;;;;5.95;3.33;;;13.20;99.90;;;;;;5114212;28;20090;-79
2024/03/15 10:39:35;;;;;;;5.45;2.80;;;13.40;99.90;;;;;;5114242;28;20043;-79
2024/03/15 10:42:01;;;;;;;5.78;2.78;;;13.70;99.90;;;;;;5109507;28;20038;-79
2024/03/15 10:44:27;;;;;;;3.78;2.78;;;13.80;99.90;;;;;;5114635;28;20058;-78
2024/03/15 10:46:53;;;;;;;3.40;2.38;;;13.90;99.90;;;;;;5115010;28;20028;-80
2024/03/15 10:49:21;;;;;;;5.65;2.47;;;13.90;99.90;;;;;;5115524;28;20052;-78
2024/03/15 10:51:47;;;;;;;5.35;2.40;;;13.90;99.90;;;;;;5114039;28;20020;-79
2024/03/15 10:54:17;;;;;;;4.35;2.50;;;14.00;99.90;;;;;;5114926;28;20023;-80
2024/03/15 10:56:43;;;;;;;4.53;2.30;;;14.20;99.90;;;;;;5113863;28;20488;-80
2024/03/15 10:59:10;;;;;;;4.80;2.30;;;14.30;99.90;;;;;;5114360;28;20030;-80
2024/03/15 11:01:37;;;;;;;5.32;2.70;;;14.40;99.90;;;;;;5114646;28;20052;-79
2024/03/15 11:04:03;;;;;;;5.20;2.47;;;14.60;99.90;;;;;;5116638;28;20026;-79
2024/03/15 11:06:43;;;;;;;4.80;2.60;;;14.70;99.90;;;;;;5118429;28;20016;-80
2024/03/15 11:09:21;;;;;;;4.75;2.67;;;14.90;99.90;;;;;;5116520;28;20024;-80
2024/03/15 11:12:00;;;;;;;5.90;2.90;;;15.10;99.90;;;;;;5117744;28;20027;-80
2024/03/15 11:14:30;;;;;;;5.13;2.65;;;15.10;99.90;;;;;;5119653;27;20015;-79
2024/03/15 11:17:00;;;;;;;9.23;2.83;;;15.30;99.90;;;;;;5116849;28;20026;-79
2024/03/15 11:19:25;;;;;;;5.70;2.53;;;15.40;99.90;;;;;;5117835;28;20100;-79
2024/03/15 11:22:02;;;;;;;13.63;2.75;;;15.70;99.90;;;;;;5117603;28;20022;-80
2024/03/15 11:24:37;;;;;;;6.60;2.75;;;15.80;99.90;;;;;;5118534;27;20739;-79
2024/03/15 11:27:03;;;;;;;5.55;3.20;;;16.00;99.90;;;;;;5115864;28;20110;-79
2024/03/15 11:29:34;;;;;;;6.47;3.08;;;16.20;99.90;;;;;;5120068;27;20050;-80
2024/03/15 11:32:00;;;;;;;5.35;2.70;;;16.40;99.90;;;;;;5117408;28;20028;-79
2024/03/15 11:34:25;;;;;;;6.80;3.15;;;16.60;99.90;;;;;;5117038;28;20020;-79
2024/03/15 11:36:51;;;;;;;11.00;2.80;;;16.60;99.90;;;;;;5117053;28;20522;-78
2024/03/15 11:39:16;;;;;;;6.97;2.85;;;16.60;99.90;;;;;;5116754;28;20027;-74
2024/03/15 11:41:42;;;;;;;5.38;2.95;;;16.50;99.90;;;;;;5112091;27;20031;-74
2024/03/15 11:44:08;;;;;;;6.03;2.65;;;16.60;99.90;;;;;;5121597;27;20036;-73
2024/03/15 11:46:33;;;;;;;7.00;2.90;;;16.90;99.90;;;;;;5124291;27;20023;-73
2024/03/15 11:49:05;;;;;;;7.18;2.95;;;17.10;99.90;;;;;;5121189;27;20136;-73
2024/03/15 11:51:31;;;;;;;6.35;2.88;;;17.30;99.90;;;;;;5119948;27;20100;-74
2024/03/15 11:53:56;;;;;;;10.35;2.72;;;17.50;99.90;;;;;;5124779;27;20493;-73
2024/03/15 11:56:22;;;;;;;7.93;2.63;;;17.50;99.90;;;;;;5114848;27;20133;-74
2024/03/15 11:58:48;;;;;;;9.20;2.40;;;17.70;99.90;;;;;;5122359;27;20155;-75
2024/03/15 12:01:14;;;;;;;6.60;2.40;;;17.90;99.90;;;;;;5118712;27;20012;-74
2024/03/15 12:03:41;;;;;;;4.65;2.50;;;18.00;99.90;;;;;;5124870;27;20035;-74
2024/03/15 12:06:08;;;;;;;8.85;2.70;;;18.00;99.90;;;;;;5118433;27;20110;-74
2024/03/15 12:08:34;;;;;;;5.55;2.28;;;17.90;99.90;;;;;;5123794;27;20039;-73
2024/03/15 12:10:59;;;;;;;8.15;2.55;;;17.90;99.90;;;;;;5120476;27;20027;-74
2024/03/15 12:13:28;;;;;;;6.55;2.63;;;17.90;99.90;;;;;;5122340;27;20052;-74
2024/03/15 12:15:54;;;;;;;4.90;2.70;;;17.60;99.90;;;;;;5120411;27;20041;-73
2024/03/15 12:18:24;;;;;;;4.00;2.80;;;17.40;99.90;;;;;;5120735;27;20031;-73
2024/03/15 12:20:51;;;;;;;7.10;2.60;;;17.50;99.90;;;;;;5116114;27;20089;-73
2024/03/15 12:23:17;;;;;;;;;;;17.50;99.90;;;;;;5110611;27;20116;-72
2024/03/15 12:25:45;;;;;;;5.90;2.20;;;17.50;99.90;;;;;;5115368;27;20038;-74
2024/03/15 12:28:12;;;;;;;;;;;17.40;99.90;;;;;;5119831;27;20050;-73
2024/03/15 12:30:40;;;;;;;4.70;2.40;;;17.40;99.90;;;;;;5115817;27;20062;-74
2024/03/15 12:33:06;;;;;;;;;;;17.50;99.90;;;;;;5113140;27;20096;-78
2024/03/15 12:35:33;;;;;;;4.25;2.40;;;17.40;99.90;;;;;;5117391;27;20034;-74
2024/03/15 12:37:59;;;;;;;;;;;17.40;99.90;;;;;;5114878;27;20116;-74
2024/03/15 12:40:25;;;;;;;;;;;17.40;99.90;;;;;;5116986;27;20027;-73
2024/03/15 12:42:51;;;;;;;4.90;2.00;;;17.50;99.90;;;;;;5116489;27;20093;-73
2024/03/15 12:45:16;;;;;;;5.50;2.40;;;17.80;99.90;;;;;;5113143;27;20531;-76
2024/03/15 12:47:42;;;;;;;3.80;2.20;;;17.90;99.90;;;;;;5113790;27;20045;-74
2024/03/15 12:50:18;;;;;;;2.90;2.00;;;17.90;99.90;;;;;;5112685;27;20057;-75
2024/03/15 12:52:44;;;;;;;;;;;17.80;99.90;;;;;;5111313;27;19907;-74
2024/03/15 12:55:15;;;;;;;5.05;2.15;;;17.90;99.90;;;;;;5122996;27;20487;-74